Time;durP1;ratioP1;P1;durP2;ratioP2;P2;SDS_P1;SDS_P2;PMS_P1;PMS_P2;Temp;Humidity;BMP_temperature;BMP_pressure;BME280_temperature;BME280_humidity;BME280_pressure;Samples;Min_cycle;Max_cycle;Signal;HPM_P1;HPM_P2
2022/09/14 00:01:06;;;;;;;17.35;4.97;;;13.00;99.90;;;;;;5085073;28;20043;-66
2022/09/14 00:03:32;;;;;;;10.27;6.25;;;13.00;99.90;;;;;;5088498;28;20056;-66
2022/09/14 00:06:06;;;;;;;17.98;6.35;;;13.00;99.90;;;;;;5088075;28;20059;-66
2022/09/14 00:08:32;;;;;;;10.73;5.78;;;12.90;99.90;;;;;;5087558;28;20051;-66
2022/09/14 00:10:57;;;;;;;11.77;6.93;;;12.90;99.90;;;;;;5087969;28;20122;-66
2022/09/14 00:13:23;;;;;;;10.45;5.93;;;12.90;99.90;;;;;;5087545;28;20123;-66
2022/09/14 00:15:50;;;;;;;13.75;7.18;;;12.90;99.90;;;;;;5087827;28;20036;-65
2022/09/14 00:18:17;;;;;;;7.25;6.00;;;12.80;99.90;;;;;;5083398;28;20040;-65
2022/09/14 00:20:42;;;;;;;13.23;6.35;;;12.80;99.90;;;;;;5088711;28;20044;-65
2022/09/14 00:23:08;;;;;;;14.32;6.85;;;12.80;99.90;;;;;;5088225;28;20036;-64
2022/09/14 00:25:34;;;;;;;14.02;6.35;;;12.80;99.90;;;;;;5083596;28;20102;-65
2022/09/14 00:27:59;;;;;;;8.60;6.25;;;12.70;99.90;;;;;;5087254;28;20040;-65
2022/09/14 00:30:25;;;;;;;10.50;6.13;;;12.70;99.90;;;;;;5088018;28;20473;-65
2022/09/14 00:32:51;;;;;;;9.90;6.00;;;12.70;99.90;;;;;;5086576;28;20036;-65
2022/09/14 00:35:17;;;;;;;14.70;5.82;;;12.70;99.90;;;;;;5085788;28;20036;-65
2022/09/14 00:37:43;;;;;;;11.57;5.95;;;12.70;99.90;;;;;;5087779;28;20076;-65
2022/09/14 00:40:11;;;;;;;8.52;6.63;;;12.60;99.90;;;;;;5089307;28;20125;-65
2022/09/14 00:42:37;;;;;;;11.27;7.15;;;12.60;99.90;;;;;;5088592;28;20044;-65
2022/09/14 00:45:11;;;;;;;14.77;6.85;;;12.60;99.90;;;;;;5088365;28;20040;-65
2022/09/14 00:47:36;;;;;;;9.30;6.20;;;12.60;99.90;;;;;;5088731;28;20040;-65
2022/09/14 00:50:04;;;;;;;6.95;6.25;;;12.60;99.90;;;;;;5077981;28;20677;-65
2022/09/14 00:52:32;;;;;;;12.38;7.05;;;12.60;99.90;;;;;;5086696;28;20122;-65
2022/09/14 00:55:05;;;;;;;7.68;6.38;;;12.60;99.90;;;;;;5090333;28;20067;-66
2022/09/14 00:57:37;;;;;;;9.02;6.15;;;12.60;99.90;;;;;;5083337;28;20036;-66
2022/09/14 01:00:08;;;;;;;9.35;6.28;;;12.60;99.90;;;;;;5092410;28;20036;-66
2022/09/14 01:02:34;;;;;;;16.85;7.28;;;12.50;99.90;;;;;;5091776;28;20060;-65
2022/09/14 01:05:00;;;;;;;11.23;6.50;;;12.50;99.90;;;;;;5088687;28;20048;-66
2022/09/14 01:07:49;;;;;;;11.38;6.90;;;12.50;99.90;;;;;;5083796;28;20032;-66
2022/09/14 01:10:33;;;;;;;12.00;6.75;;;12.50;99.90;;;;;;5090896;28;20071;-66
2022/09/14 01:13:02;;;;;;;15.88;6.93;;;12.50;99.90;;;;;;5089673;28;20044;-66
2022/09/14 01:16:22;;;;;;;8.40;6.70;;;12.50;99.90;;;;;;5091050;28;20048;-66
2022/09/14 01:18:56;;;;;;;13.63;6.82;;;12.50;99.90;;;;;;5068814;28;20444;-66
2022/09/14 01:21:28;;;;;;;10.88;7.45;;;12.50;99.90;;;;;;5061677;28;20040;-66
2022/09/14 01:24:20;;;;;;;12.40;7.75;;;12.40;99.90;;;;;;5075212;28;20472;-66
2022/09/14 01:26:57;;;;;;;8.48;6.72;;;12.40;99.90;;;;;;5078976;28;20044;-66
2022/09/14 01:29:48;;;;;;;13.20;7.87;;;12.40;99.90;;;;;;5089884;28;20120;-66
2022/09/14 01:32:58;;;;;;;10.95;7.95;;;12.50;99.90;;;;;;5090287;28;20044;-66
2022/09/14 01:35:39;;;;;;;22.00;7.07;;;12.40;99.90;;;;;;5084700;28;20527;-66
2022/09/14 01:38:11;;;;;;;9.00;6.70;;;12.40;99.90;;;;;;5088081;28;20040;-66
2022/09/14 01:40:48;;;;;;;12.70;6.57;;;12.40;99.90;;;;;;5088119;28;20055;-66
2022/09/14 01:43:20;;;;;;;12.35;7.18;;;12.40;99.90;;;;;;5089335;28;20503;-66
2022/09/14 01:45:50;;;;;;;11.32;7.40;;;12.40;99.90;;;;;;5093017;28;20048;-66
2022/09/14 01:48:19;;;;;;;15.48;7.38;;;12.30;99.90;;;;;;5089914;28;20500;-67
2022/09/14 01:50:53;;;;;;;10.07;7.13;;;12.30;99.90;;;;;;5089558;28;20134;-67
2022/09/14 01:53:42;;;;;;;9.77;6.63;;;12.40;99.90;;;;;;5088787;28;20039;-66
2022/09/14 01:56:22;;;;;;;13.00;7.22;;;12.40;99.90;;;;;;5081885;28;20078;-67
2022/09/14 01:59:23;;;;;;;11.98;6.90;;;12.30;99.90;;;;;;5089019;28;20044;-67
2022/09/14 02:02:20;;;;;;;24.33;7.68;;;12.30;99.90;;;;;;5088817;28;20048;-67
2022/09/14 02:05:09;;;;;;;11.43;7.82;;;12.30;99.90;;;;;;5089228;28;20048;-67
2022/09/14 02:07:36;;;;;;;10.30;6.90;;;12.30;99.90;;;;;;5089154;28;20063;-67
2022/09/14 02:10:05;;;;;;;12.70;6.85;;;12.30;99.90;;;;;;5089606;28;20161;-67
2022/09/14 02:12:31;;;;;;;17.40;7.20;;;12.30;99.90;;;;;;5088744;28;20036;-67
2022/09/14 02:14:59;;;;;;;11.88;7.30;;;12.30;99.90;;;;;;5088908;28;20044;-65
2022/09/14 02:17:24;;;;;;;11.30;7.05;;;12.30;99.90;;;;;;5089876;28;20062;-66
2022/09/14 02:20:00;;;;;;;9.80;7.13;;;12.30;99.90;;;;;;5089805;28;20044;-66
2022/09/14 02:22:28;;;;;;;15.70;7.97;;;12.20;99.90;;;;;;5089001;28;20044;-66
2022/09/14 02:24:54;;;;;;;16.65;7.47;;;12.20;99.90;;;;;;5081563;28;20544;-67
2022/09/14 02:27:20;;;;;;;19.33;6.93;;;12.30;99.90;;;;;;5088124;28;20036;-66
2022/09/14 02:29:46;;;;;;;11.23;7.07;;;12.20;99.90;;;;;;5075683;28;20075;-66
2022/09/14 02:32:49;;;;;;;9.95;6.82;;;12.20;99.90;;;;;;5088409;28;20206;-67
2022/09/14 02:35:34;;;;;;;12.27;6.75;;;12.30;99.90;;;;;;5089417;28;20102;-67
2022/09/14 02:38:37;;;;;;;9.45;6.60;;;12.20;99.90;;;;;;5089017;28;20500;-67
2022/09/14 02:41:17;;;;;;;9.10;7.20;;;12.20;99.90;;;;;;5077423;28;20086;-67
2022/09/14 02:44:06;;;;;;;11.68;7.03;;;12.20;99.90;;;;;;5087782;28;20055;-66
2022/09/14 02:46:47;;;;;;;10.68;7.45;;;12.20;99.90;;;;;;5089255;28;20401;-66
2022/09/14 02:49:33;;;;;;;17.90;8.05;;;12.20;99.90;;;;;;5088692;28;20028;-66
2022/09/14 02:52:18;;;;;;;9.93;6.15;;;12.20;99.90;;;;;;5089121;28;20393;-66
2022/09/14 02:54:57;;;;;;;9.88;6.20;;;12.30;99.90;;;;;;5077945;28;20089;-66
2022/09/14 02:57:24;;;;;;;12.13;6.90;;;12.30;99.90;;;;;;5088291;28;20060;-66
2022/09/14 02:59:52;;;;;;;12.15;7.53;;;12.20;99.90;;;;;;5088856;28;20036;-66
2022/09/14 03:02:18;;;;;;;;;;;12.30;99.90;;;;;;5088543;28;20056;-65
2022/09/14 03:04:43;;;;;;;10.10;7.38;;;12.20;99.90;;;;;;5088728;28;19927;-65
2022/09/14 03:07:09;;;;;;;11.07;6.65;;;12.20;99.90;;;;;;5088346;28;20040;-66
2022/09/14 03:09:34;;;;;;;10.77;6.40;;;12.30;99.90;;;;;;5089000;28;20412;-66
2022/09/14 03:12:01;;;;;;;11.93;7.10;;;12.30;99.90;;;;;;5088653;28;20385;-66
2022/09/14 03:14:26;;;;;;;20.40;6.53;;;12.30;99.90;;;;;;5087427;28;20044;-65
2022/09/14 03:16:52;;;;;;;15.43;7.68;;;12.30;99.90;;;;;;5087279;28;20081;-65
2022/09/14 03:19:18;;;;;;;11.52;6.88;;;12.30;99.90;;;;;;5083317;28;20145;-65
2022/09/14 03:21:43;;;;;;;11.93;7.95;;;12.40;99.90;;;;;;5089069;28;20050;-65
2022/09/14 03:24:09;;;;;;;10.23;7.38;;;12.40;99.90;;;;;;5087240;28;20539;-65
2022/09/14 03:26:37;;;;;;;11.05;6.78;;;12.40;99.90;;;;;;5088085;28;20613;-65
2022/09/14 03:29:04;;;;;;;11.20;6.95;;;12.40;99.90;;;;;;5088905;28;20063;-65
2022/09/14 03:31:30;;;;;;;8.07;6.80;;;12.50;99.90;;;;;;5088753;28;20040;-66
2022/09/14 03:33:58;;;;;;;12.77;7.65;;;12.50;99.90;;;;;;5088085;28;20416;-65
2022/09/14 03:36:25;;;;;;;;;;;12.50;99.90;;;;;;5089081;28;20072;-65
2022/09/14 03:38:53;;;;;;;15.75;7.53;;;12.50;99.90;;;;;;5088510;28;20054;-65
2022/09/14 03:41:19;;;;;;;;;;;12.50;99.90;;;;;;5088190;28;20056;-65
2022/09/14 03:43:45;;;;;;;15.68;7.32;;;12.50;99.90;;;;;;5088692;28;20435;-65
2022/09/14 03:46:13;;;;;;;13.18;7.13;;;12.50;99.90;;;;;;5087959;28;20119;-65
2022/09/14 03:48:39;;;;;;;25.45;7.50;;;12.60;99.90;;;;;;5088554;28;20032;-66
2022/09/14 03:51:08;;;;;;;12.05;7.80;;;12.60;99.90;;;;;;5088414;28;20039;-66
2022/09/14 03:53:34;;;;;;;12.18;6.82;;;12.60;99.90;;;;;;5088206;28;20520;-66
2022/09/14 03:56:00;;;;;;;11.80;7.97;;;12.60;99.90;;;;;;5087609;28;20043;-66
2022/09/14 03:58:30;;;;;;;16.50;7.43;;;12.60;99.90;;;;;;5082041;28;20032;-66
2022/09/14 04:01:01;;;;;;;10.98;7.55;;;12.70;99.90;;;;;;5085338;28;20044;-66
2022/09/14 04:03:27;;;;;;;11.20;6.80;;;12.70;99.90;;;;;;5087628;28;20814;-66
2022/09/14 04:05:56;;;;;;;19.52;7.45;;;12.70;99.90;;;;;;5087210;28;20232;-66
2022/09/14 04:08:22;;;;;;;22.38;7.63;;;12.70;99.90;;;;;;5087073;28;20240;-66
2022/09/14 04:10:48;;;;;;;10.20;6.68;;;12.70;99.90;;;;;;5085376;28;20044;-67
2022/09/14 04:13:13;;;;;;;14.07;7.45;;;12.80;99.90;;;;;;5080719;28;20040;-67
2022/09/14 04:15:39;;;;;;;14.43;7.05;;;12.80;99.90;;;;;;5088345;28;20043;-67
2022/09/14 04:18:05;;;;;;;9.90;6.93;;;12.80;99.90;;;;;;5087915;28;20050;-67
2022/09/14 04:20:30;;;;;;;16.35;7.03;;;12.80;99.90;;;;;;5088184;28;20490;-67
2022/09/14 04:22:56;;;;;;;11.15;6.00;;;12.80;99.90;;;;;;5086216;28;20119;-67
2022/09/14 04:25:22;;;;;;;10.27;6.47;;;12.90;99.90;;;;;;5087197;28;20036;-67
2022/09/14 04:27:48;;;;;;;15.80;6.72;;;12.90;99.90;;;;;;5087225;28;20467;-66
2022/09/14 04:30:14;;;;;;;10.55;6.10;;;12.90;99.90;;;;;;5088943;28;20055;-66
2022/09/14 04:32:40;;;;;;;16.23;8.00;;;12.90;99.90;;;;;;5082344;28;20124;-66
2022/09/14 04:35:06;;;;;;;10.23;7.10;;;12.90;99.90;;;;;;5077983;28;20703;-66
2022/09/14 04:37:31;;;;;;;11.18;7.03;;;13.00;99.90;;;;;;5087461;28;20036;-66
2022/09/14 04:39:57;;;;;;;11.73;7.30;;;13.00;99.90;;;;;;5089127;28;20040;-66
2022/09/14 04:42:23;;;;;;;8.52;7.68;;;13.00;99.90;;;;;;5088403;28;20038;-66
2022/09/14 04:44:49;;;;;;;8.50;6.80;;;13.00;99.90;;;;;;5088545;28;20044;-67
2022/09/14 04:47:14;;;;;;;12.23;8.27;;;13.00;99.90;;;;;;5077837;28;20419;-66
2022/09/14 04:49:40;;;;;;;15.18;6.50;;;13.00;99.90;;;;;;5088207;28;20094;-66
2022/09/14 04:52:06;;;;;;;10.25;6.15;;;13.10;99.90;;;;;;5087749;28;20449;-69
2022/09/14 04:54:31;;;;;;;13.93;7.10;;;13.10;99.90;;;;;;5088393;28;20150;-67
2022/09/14 04:56:57;;;;;;;15.85;7.38;;;13.10;99.90;;;;;;5088354;28;20079;-67
2022/09/14 04:59:22;;;;;;;11.60;7.43;;;13.10;99.90;;;;;;5088487;28;20040;-67
2022/09/14 05:01:48;;;;;;;10.40;7.32;;;13.10;99.90;;;;;;5088168;28;20056;-67
2022/09/14 05:04:14;;;;;;;16.63;6.45;;;13.20;99.90;;;;;;5087834;28;20052;-67
2022/09/14 05:06:42;;;;;;;13.18;7.03;;;13.10;99.90;;;;;;5084402;28;20039;-68
2022/09/14 05:09:17;;;;;;;19.45;7.85;;;13.20;99.90;;;;;;5087375;28;20090;-68
2022/09/14 05:11:43;;;;;;;12.98;6.68;;;13.20;99.90;;;;;;5070906;28;20044;-67
2022/09/14 05:14:11;;;;;;;15.00;6.97;;;13.10;99.90;;;;;;5084119;28;20510;-68
2022/09/14 05:16:37;;;;;;;10.23;7.38;;;13.20;99.90;;;;;;5086265;28;20123;-68
2022/09/14 05:19:06;;;;;;;12.98;8.05;;;13.20;99.90;;;;;;5087181;28;20437;-68
2022/09/14 05:21:35;;;;;;;12.82;6.53;;;13.20;99.90;;;;;;5082190;28;20140;-68
2022/09/14 05:24:05;;;;;;;12.02;6.43;;;13.20;99.90;;;;;;5077027;28;20760;-68
2022/09/14 05:26:31;;;;;;;14.43;7.88;;;13.20;99.90;;;;;;5085836;28;20036;-68
2022/09/14 05:28:59;;;;;;;10.50;7.45;;;13.20;99.90;;;;;;5085450;28;20504;-67
2022/09/14 05:31:26;;;;;;;11.73;7.03;;;13.20;99.90;;;;;;5081191;28;20048;-68
2022/09/14 05:33:52;;;;;;;7.82;6.05;;;13.20;99.90;;;;;;5086672;28;20035;-68
2022/09/14 05:36:18;;;;;;;9.43;6.43;;;13.20;99.90;;;;;;5087751;28;20131;-67
2022/09/14 05:38:44;;;;;;;14.88;6.80;;;13.20;99.90;;;;;;5086914;28;20123;-68
2022/09/14 05:41:11;;;;;;;11.32;6.15;;;13.20;99.90;;;;;;5090755;28;20115;-69
2022/09/14 05:43:37;;;;;;;8.38;6.80;;;13.20;99.90;;;;;;5078486;28;20042;-67
2022/09/14 05:46:14;;;;;;;15.07;6.57;;;13.20;99.90;;;;;;5089950;28;20118;-67
2022/09/14 05:48:40;;;;;;;8.35;7.20;;;13.20;99.90;;;;;;5089155;28;20044;-67
2022/09/14 05:51:12;;;;;;;8.73;7.13;;;13.30;99.90;;;;;;5091286;28;20073;-67
2022/09/14 05:53:38;;;;;;;11.95;6.45;;;13.30;99.90;;;;;;5091174;28;20048;-67
2022/09/14 05:56:09;;;;;;;13.40;6.47;;;13.30;99.90;;;;;;5091744;28;20040;-67
2022/09/14 05:58:36;;;;;;;10.80;7.05;;;13.30;99.90;;;;;;5091966;28;20123;-66
2022/09/14 06:01:10;;;;;;;13.23;7.57;;;13.40;99.90;;;;;;5088441;28;20044;-66
2022/09/14 06:03:36;;;;;;;14.93;6.88;;;13.40;99.90;;;;;;5090555;28;20056;-66
2022/09/14 06:06:04;;;;;;;9.73;6.82;;;13.40;99.90;;;;;;5092781;27;20040;-67
2022/09/14 06:08:30;;;;;;;13.05;6.15;;;13.40;99.90;;;;;;5091706;28;20040;-67
2022/09/14 06:11:01;;;;;;;9.15;6.80;;;13.50;99.90;;;;;;5086247;28;20040;-67
2022/09/14 06:13:27;;;;;;;16.52;7.72;;;13.50;99.90;;;;;;5078477;28;20507;-67
2022/09/14 06:15:52;;;;;;;10.40;6.97;;;13.60;99.90;;;;;;5084171;28;20059;-67
2022/09/14 06:18:18;;;;;;;10.15;6.72;;;13.50;99.90;;;;;;5089850;28;21407;-68
2022/09/14 06:20:51;;;;;;;7.20;6.50;;;13.60;99.90;;;;;;5087352;28;20135;-67
2022/09/14 06:23:17;;;;;;;21.35;8.75;;;13.60;99.90;;;;;;5087311;28;20427;-67
2022/09/14 06:25:43;;;;;;;11.00;6.95;;;13.70;99.90;;;;;;5083116;28;20044;-67
2022/09/14 06:28:08;;;;;;;19.48;8.02;;;13.70;99.90;;;;;;5083695;28;20047;-67
2022/09/14 06:30:34;;;;;;;12.88;7.38;;;13.70;99.90;;;;;;5083139;28;20036;-68
2022/09/14 06:33:00;;;;;;;15.18;7.25;;;13.70;99.90;;;;;;5084041;28;20089;-67
2022/09/14 06:35:25;;;;;;;20.65;7.47;;;13.80;99.90;;;;;;5082244;28;20032;-67
2022/09/14 06:37:51;;;;;;;10.70;7.95;;;13.80;99.90;;;;;;5083302;28;20047;-67
2022/09/14 06:40:17;;;;;;;14.48;7.85;;;13.90;99.90;;;;;;5085757;28;20043;-68
2022/09/14 06:42:43;;;;;;;14.93;7.50;;;13.90;99.90;;;;;;5088997;28;20396;-68
2022/09/14 06:45:08;;;;;;;11.60;6.60;;;14.00;99.90;;;;;;5089124;28;20051;-67
2022/09/14 06:47:34;;;;;;;17.13;8.40;;;14.00;99.90;;;;;;5085791;28;20485;-68
2022/09/14 06:50:00;;;;;;;18.10;8.73;;;14.10;99.90;;;;;;5085233;28;20665;-67
2022/09/14 06:52:26;;;;;;;11.68;7.82;;;14.10;99.90;;;;;;5084684;28;20467;-67
2022/09/14 06:54:52;;;;;;;18.40;8.30;;;14.20;99.90;;;;;;5086178;28;20073;-67
2022/09/14 06:57:18;;;;;;;13.77;8.38;;;14.20;99.90;;;;;;5088065;28;20039;-67
2022/09/14 06:59:43;;;;;;;12.15;7.88;;;14.30;99.90;;;;;;5089381;28;20039;-67
2022/09/14 07:02:12;;;;;;;11.82;8.07;;;14.40;99.90;;;;;;5088229;28;20062;-66
2022/09/14 07:04:37;;;;;;;;;;;14.40;99.90;;;;;;5089575;28;20044;-66
2022/09/14 07:07:03;;;;;;;17.30;7.43;;;14.50;99.90;;;;;;5089275;28;19977;-67
2022/09/14 07:09:30;;;;;;;14.35;7.65;;;14.60;99.90;;;;;;5089814;28;20048;-67
2022/09/14 07:11:56;;;;;;;14.20;7.13;;;14.70;99.90;;;;;;5088578;28;20074;-67
2022/09/14 07:14:21;;;;;;;20.35;6.80;;;14.80;99.90;;;;;;5089641;28;20036;-67
2022/09/14 07:16:47;;;;;;;9.73;6.22;;;14.80;99.90;;;;;;5081840;28;20473;-67
2022/09/14 07:19:13;;;;;;;10.93;6.25;;;14.80;99.90;;;;;;5086096;28;20040;-68
2022/09/14 07:21:40;;;;;;;13.18;6.82;;;14.90;99.90;;;;;;5088187;28;20093;-66
2022/09/14 07:24:06;;;;;;;14.40;8.20;;;14.90;99.90;;;;;;5088939;28;20044;-66
2022/09/14 07:26:38;;;;;;;11.32;6.70;;;15.00;99.90;;;;;;5088463;28;20055;-66
2022/09/14 07:29:07;;;;;;;12.75;6.45;;;15.00;99.90;;;;;;5085022;28;20413;-66
2022/09/14 07:31:36;;;;;;;13.48;5.93;;;15.10;99.90;;;;;;5084032;28;20048;-66
2022/09/14 07:34:03;;;;;;;18.65;9.65;;;15.20;99.90;;;;;;5083952;28;20611;-66
2022/09/14 07:36:31;;;;;;;20.92;9.02;;;15.20;99.90;;;;;;5087005;28;20117;-66
2022/09/14 07:38:56;;;;;;;16.30;6.95;;;15.30;99.90;;;;;;5083468;28;20040;-66
2022/09/14 07:41:28;;;;;;;9.82;5.40;;;15.30;99.90;;;;;;5082396;28;20054;-66
2022/09/14 07:43:56;;;;;;;12.02;6.22;;;15.40;99.90;;;;;;5088255;28;20036;-66
2022/09/14 07:46:22;;;;;;;12.07;5.68;;;15.40;99.90;;;;;;5092482;28;20043;-67
2022/09/14 07:48:59;;;;;;;12.63;5.78;;;15.50;99.90;;;;;;5084030;28;20128;-66
2022/09/14 07:51:25;;;;;;;13.80;5.35;;;15.60;99.90;;;;;;5078528;28;20046;-66
2022/09/14 07:53:51;;;;;;;7.50;5.20;;;15.60;99.90;;;;;;5084597;28;20075;-66
2022/09/14 07:56:17;;;;;;;8.95;4.88;;;15.70;99.90;;;;;;5085118;28;20400;-66
2022/09/14 07:58:43;;;;;;;29.17;6.45;;;15.70;99.90;;;;;;5085780;28;20476;-66
2022/09/14 08:01:14;;;;;;;9.77;5.10;;;15.80;99.90;;;;;;5062657;28;20074;-66
2022/09/14 08:03:42;;;;;;;9.80;4.63;;;15.90;99.90;;;;;;5086958;28;20134;-66
2022/09/14 08:06:15;;;;;;;10.60;4.70;;;15.90;99.90;;;;;;5086826;28;20123;-66
2022/09/14 08:08:43;;;;;;;6.78;4.18;;;16.00;99.90;;;;;;5086742;28;20043;-66
2022/09/14 08:11:10;;;;;;;;;;;16.10;99.90;;;;;;5088801;28;20028;-66
2022/09/14 08:13:38;;;;;;;6.57;3.88;;;16.20;99.90;;;;;;5084162;28;19934;-66
2022/09/14 08:16:04;;;;;;;7.90;4.05;;;16.20;99.90;;;;;;5085890;28;20042;-66
2022/09/14 08:18:32;;;;;;;17.45;4.63;;;16.30;99.90;;;;;;5085962;28;20047;-66
2022/09/14 08:21:06;;;;;;;11.97;2.83;;;16.40;99.90;;;;;;5088239;28;20031;-67
2022/09/14 08:23:33;;;;;;;6.30;2.28;;;16.50;99.90;;;;;;5084033;28;20135;-66
2022/09/14 08:26:13;;;;;;;3.70;2.47;;;16.60;99.90;;;;;;5087138;28;20044;-67
2022/09/14 08:28:39;;;;;;;4.80;2.47;;;16.60;99.90;;;;;;5082484;28;20181;-67
2022/09/14 08:31:06;;;;;;;12.93;2.42;;;16.70;99.90;;;;;;5088014;28;20047;-68
2022/09/14 08:33:34;;;;;;;12.35;2.83;;;16.80;99.90;;;;;;5080697;28;20039;-67
2022/09/14 08:36:01;;;;;;;10.30;2.40;;;16.80;99.90;;;;;;5077061;28;20055;-68
2022/09/14 08:38:27;;;;;;;8.60;6.28;;;16.90;99.90;;;;;;5086022;28;20494;-67
2022/09/14 08:40:53;;;;;;;5.70;2.72;;;17.00;99.90;;;;;;5085337;28;20047;-67
2022/09/14 08:43:21;;;;;;;9.10;2.45;;;17.00;99.90;;;;;;5087430;28;20051;-67
2022/09/14 08:45:48;;;;;;;4.72;1.73;;;17.10;99.90;;;;;;5082499;28;20392;-67
2022/09/14 08:48:43;;;;;;;6.60;2.08;;;17.30;99.90;;;;;;5088752;28;20070;-67
2022/09/14 08:51:09;;;;;;;13.77;2.10;;;17.40;99.90;;;;;;5078529;28;20059;-67
2022/09/14 08:53:38;;;;;;;7.47;1.73;;;17.50;99.90;;;;;;5087285;28;20044;-67
2022/09/14 08:56:09;;;;;;;7.07;2.33;;;17.70;99.90;;;;;;5087729;28;20044;-67
2022/09/14 08:58:58;;;;;;;5.43;1.95;;;17.80;99.90;;;;;;5087397;28;20040;-67
2022/09/14 09:01:48;;;;;;;10.70;2.60;;;18.00;99.90;;;;;;5087917;28;20836;-67
2022/09/14 09:04:38;;;;;;;5.72;1.77;;;18.20;99.90;;;;;;5075367;28;20044;-67
2022/09/14 09:07:25;;;;;;;6.85;1.95;;;18.30;99.90;;;;;;5085650;28;20028;-67
2022/09/14 09:09:53;;;;;;;12.10;2.80;;;18.30;99.90;;;;;;5087803;28;20055;-66
2022/09/14 09:12:53;;;;;;;6.25;2.03;;;18.40;99.90;;;;;;5087380;28;20044;-66
2022/09/14 09:15:47;;;;;;;13.73;2.58;;;18.50;99.90;;;;;;5091236;28;20051;-67
2022/09/14 09:18:26;;;;;;;7.88;2.25;;;18.50;99.90;;;;;;5082445;28;20040;-67
2022/09/14 09:20:59;;;;;;;6.80;2.38;;;18.50;99.90;;;;;;5091202;28;20040;-67
2022/09/14 09:23:28;;;;;;;12.68;2.53;;;18.60;99.90;;;;;;5084064;28;20036;-67
2022/09/14 09:26:08;;;;;;;4.80;1.90;;;18.70;99.90;;;;;;5090772;28;20085;-67
2022/09/14 09:28:44;;;;;;;6.43;1.88;;;18.90;99.90;;;;;;5090554;28;20489;-67
2022/09/14 09:31:12;;;;;;;8.70;1.95;;;18.90;99.90;;;;;;5091069;28;20055;-66
2022/09/14 09:33:37;;;;;;;9.40;2.40;;;18.80;99.90;;;;;;5087795;28;20049;-67
2022/09/14 09:36:06;;;;;;;8.05;2.90;;;18.80;99.90;;;;;;5087912;28;20039;-67
2022/09/14 09:38:33;;;;;;;8.02;2.20;;;18.80;99.90;;;;;;5090864;28;20451;-66
2022/09/14 09:41:23;;;;;;;12.63;3.03;;;18.70;99.90;;;;;;5091115;28;20104;-66
2022/09/14 09:44:08;;;;;;;9.18;2.33;;;18.70;99.90;;;;;;5089124;28;20102;-66
2022/09/14 09:46:46;;;;;;;12.88;3.67;;;18.70;99.90;;;;;;5078185;28;20048;-66
2022/09/14 09:49:23;;;;;;;7.25;2.47;;;18.70;99.90;;;;;;5089121;28;20458;-67
2022/09/14 09:51:50;;;;;;;14.90;3.70;;;18.70;99.90;;;;;;5087582;28;20047;-66
2022/09/14 09:54:15;;;;;;;6.05;2.53;;;18.70;99.90;;;;;;5088988;28;20071;-66
2022/09/14 09:56:56;;;;;;;15.52;3.65;;;18.80;99.90;;;;;;5090588;28;20113;-66
2022/09/14 09:59:27;;;;;;;10.25;3.28;;;18.80;99.90;;;;;;5090206;28;20051;-66
2022/09/14 10:01:55;;;;;;;16.27;2.88;;;19.00;99.90;;;;;;5089820;28;20055;-66
2022/09/14 10:04:27;;;;;;;6.32;1.95;;;19.10;99.90;;;;;;5090336;28;20068;-66
2022/09/14 10:06:56;;;;;;;10.15;2.17;;;19.20;99.90;;;;;;5088871;28;20050;-66
2022/09/14 10:09:26;;;;;;;8.40;2.30;;;19.20;99.90;;;;;;5086625;28;20044;-66
2022/09/14 10:12:03;;;;;;;10.13;3.30;;;19.30;99.90;;;;;;5090044;28;20067;-66
2022/09/14 10:14:32;;;;;;;10.55;3.15;;;19.30;99.90;;;;;;5082081;28;20052;-66
2022/09/14 10:17:04;;;;;;;5.65;2.65;;;19.30;99.90;;;;;;5089542;28;20094;-66
2022/09/14 10:19:31;;;;;;;7.75;2.55;;;19.50;99.90;;;;;;5085371;28;20075;-66
2022/09/14 10:22:04;;;;;;;8.43;2.28;;;19.70;99.90;;;;;;5082351;28;20066;-65
2022/09/14 10:24:33;;;;;;;22.60;3.17;;;19.70;99.90;;;;;;5084372;28;20404;-66
2022/09/14 10:26:58;;;;;;;11.32;2.10;;;19.90;99.90;;;;;;5087655;28;20039;-65
2022/09/14 10:29:58;;;;;;;11.45;3.15;;;20.10;99.90;;;;;;5080377;28;20070;-65
2022/09/14 10:32:25;;;;;;;10.48;3.08;;;20.30;99.90;;;;;;5055161;28;20056;-66
2022/09/14 10:34:51;;;;;;;7.97;2.30;;;20.40;99.90;;;;;;5089354;28;20078;-65
2022/09/14 10:37:26;;;;;;;12.60;2.92;;;20.50;99.90;;;;;;5087823;28;20059;-66
2022/09/14 10:40:06;;;;;;;7.65;2.72;;;20.70;99.90;;;;;;5085497;28;20500;-66
2022/09/14 10:42:43;;;;;;;7.50;2.25;;;20.80;99.90;;;;;;5083096;28;20063;-65
2022/09/14 10:45:22;;;;;;;10.25;3.30;;;20.80;99.90;;;;;;5085799;28;20050;-65
2022/09/14 10:48:06;;;;;;;13.93;2.97;;;21.20;99.90;;;;;;5080450;28;20118;-65
2022/09/14 10:50:40;;;;;;;7.90;2.20;;;21.20;99.90;;;;;;5085150;28;20432;-66
2022/09/14 10:53:11;;;;;;;8.82;2.28;;;21.10;99.90;;;;;;5088815;28;20512;-65
2022/09/14 10:55:47;;;;;;;6.82;2.65;;;21.30;99.90;;;;;;5089480;28;20088;-67
2022/09/14 10:58:36;;;;;;;12.77;2.92;;;21.20;99.90;;;;;;5086926;28;20463;-67
2022/09/14 11:01:30;;;;;;;7.82;2.50;;;21.40;99.90;;;;;;5087743;28;20040;-67
2022/09/14 11:04:14;;;;;;;4.72;2.22;;;21.60;99.90;;;;;;5048678;28;20045;-67
2022/09/14 11:06:59;;;;;;;11.52;3.00;;;21.90;99.90;;;;;;5048394;28;20052;-66
2022/09/14 11:09:52;;;;;;;8.43;2.40;;;22.10;99.90;;;;;;5048794;28;20037;-67
2022/09/14 11:12:37;;;;;;;11.75;2.88;;;22.00;99.90;;;;;;5045336;28;20094;-66
2022/09/14 11:15:05;;;;;;;3.90;1.95;;;22.10;95.90;;;;;;5046921;28;20746;-66
2022/09/14 11:17:44;;;;;;;10.15;2.85;;;22.00;99.90;;;;;;5048143;28;20036;-66
2022/09/14 11:20:18;;;;;;;7.03;1.88;;;22.00;99.50;;;;;;5044731;28;20048;-66
2022/09/14 11:23:14;;;;;;;5.28;2.42;;;21.90;99.90;;;;;;5046009;28;20049;-66
2022/09/14 11:25:48;;;;;;;4.55;2.38;;;21.90;99.90;;;;;;5047404;28;20049;-66
2022/09/14 11:28:23;;;;;;;5.72;2.55;;;22.00;99.90;;;;;;5040432;28;20060;-66
2022/09/14 11:31:03;;;;;;;13.13;2.45;;;21.90;99.60;;;;;;5043649;28;20056;-66
2022/09/14 11:33:42;;;;;;;7.22;2.42;;;21.90;97.80;;;;;;5039761;28;20041;-66
2022/09/14 11:36:31;;;;;;;8.80;2.67;;;21.90;96.20;;;;;;5045723;28;20140;-66
2022/09/14 11:39:19;;;;;;;15.02;3.40;;;21.70;96.40;;;;;;5045181;28;20124;-65
2022/09/14 11:41:48;;;;;;;;;;;21.60;97.00;;;;;;5049155;28;20718;-65
2022/09/14 11:44:29;;;;;;;6.40;2.75;;;21.70;97.40;;;;;;5048044;28;19927;-66
2022/09/14 11:47:17;;;;;;;11.88;4.22;;;21.90;93.50;;;;;;5047747;28;20514;-66
2022/09/14 11:49:54;;;;;;;6.38;3.00;;;22.00;93.90;;;;;;5043185;28;20140;-66
2022/09/14 11:52:22;;;;;;;8.60;2.90;;;22.10;93.70;;;;;;5045660;28;20061;-66
2022/09/14 11:54:49;;;;;;;10.52;2.40;;;22.10;92.00;;;;;;5047009;28;20080;-65
2022/09/14 11:57:18;;;;;;;6.60;2.77;;;22.10;93.10;;;;;;5046585;28;20511;-66
2022/09/14 11:59:49;;;;;;;9.38;2.35;;;22.20;92.80;;;;;;5048279;28;20811;-66
2022/09/14 12:02:24;;;;;;;8.48;2.63;;;22.30;91.30;;;;;;5064163;28;20052;-66
2022/09/14 12:05:04;;;;;;;9.15;2.40;;;22.40;83.90;;;;;;5083246;28;20135;-66
2022/09/14 12:07:38;;;;;;;8.65;2.55;;;22.40;86.10;;;;;;5085785;28;20169;-66
2022/09/14 12:10:22;;;;;;;5.28;2.28;;;22.50;82.00;;;;;;5085477;28;20052;-66
2022/09/14 12:13:06;;;;;;;7.00;2.13;;;22.60;84.10;;;;;;5080926;28;20036;-67
2022/09/14 12:15:36;;;;;;;8.63;3.17;;;22.60;87.90;;;;;;5085529;28;20074;-64
2022/09/14 12:18:05;;;;;;;6.93;2.38;;;22.50;86.20;;;;;;5083709;28;20118;-66
2022/09/14 12:20:41;;;;;;;7.88;1.85;;;22.50;87.60;;;;;;5083777;28;20043;-66
2022/09/14 12:23:27;;;;;;;5.25;2.10;;;22.40;85.00;;;;;;5085224;28;20115;-66
2022/09/14 12:26:12;;;;;;;8.60;2.25;;;22.20;81.60;;;;;;5085627;28;20063;-66
2022/09/14 12:28:46;;;;;;;8.98;2.47;;;22.00;83.30;;;;;;5085345;28;20055;-64
2022/09/14 12:31:31;;;;;;;7.57;2.47;;;22.00;90.90;;;;;;5078549;28;20122;-65
2022/09/14 12:34:16;;;;;;;8.55;2.15;;;22.10;88.80;;;;;;5087091;28;20037;-65
2022/09/14 12:36:42;;;;;;;8.00;2.50;;;22.00;90.60;;;;;;5087586;28;20400;-64
2022/09/14 12:39:20;;;;;;;12.30;2.75;;;21.90;90.80;;;;;;5075263;28;20044;-64
2022/09/14 12:41:45;;;;;;;8.25;2.75;;;21.80;92.00;;;;;;5088024;28;20044;-65
2022/09/14 12:44:40;;;;;;;7.13;2.35;;;21.80;92.70;;;;;;5087577;28;20403;-65
2022/09/14 12:47:24;;;;;;;7.25;2.17;;;21.70;90.50;;;;;;5086931;28;20048;-66
2022/09/14 12:49:51;;;;;;;4.75;2.10;;;21.60;93.70;;;;;;5082023;28;20055;-65
2022/09/14 12:52:43;;;;;;;6.60;2.33;;;21.70;93.90;;;;;;5091540;28;20039;-66
2022/09/14 12:55:20;;;;;;;8.77;2.95;;;21.60;93.50;;;;;;5084005;28;20055;-66
2022/09/14 12:58:14;;;;;;;5.90;2.83;;;21.50;93.10;;;;;;5090216;28;20036;-66
2022/09/14 13:00:55;;;;;;;8.98;2.47;;;21.40;93.40;;;;;;5079575;28;20082;-65
2022/09/14 13:03:45;;;;;;;11.20;3.10;;;21.50;93.10;;;;;;5080939;28;20435;-65
2022/09/14 13:06:14;;;;;;;12.30;2.83;;;21.50;93.90;;;;;;5090461;28;20036;-66
2022/09/14 13:08:47;;;;;;;14.95;3.08;;;21.30;93.80;;;;;;5091351;28;20412;-66